createdAt,value
2022-12-01T00:01:17.499Z,47.90
2022-12-01T00:03:45.288Z,39.07
2022-12-01T00:06:15.755Z,36.60
2022-12-01T00:09:05.419Z,42.37
2022-12-01T00:11:32.439Z,40.13
2022-12-01T00:14:01.546Z,37.80
2022-12-01T00:16:31.149Z,32.00
2022-12-01T00:18:58.787Z,31.40
2022-12-01T00:21:28.019Z,33.63
2022-12-01T00:23:57.861Z,35.47
2022-12-01T00:26:27.309Z,35.17
2022-12-01T00:28:56.505Z,38.53
2022-12-01T00:31:24.854Z,29.30
2022-12-01T00:33:54.248Z,36.90
2022-12-01T00:36:21.994Z,30.27
2022-12-01T00:38:52.824Z,33.93
2022-12-01T00:41:20.982Z,38.93
2022-12-01T00:43:48.492Z,40.67
2022-12-01T00:46:16.319Z,27.57
2022-12-01T00:48:43.913Z,35.73
2022-12-01T00:51:12.697Z,34.07
2022-12-01T00:53:40.189Z,34.60
2022-12-01T00:56:08.260Z,34.33
2022-12-01T00:58:35.693Z,53.13
2022-12-01T01:01:04.222Z,38.57
2022-12-01T01:03:33.913Z,38.93
2022-12-01T01:06:05.674Z,51.80
2022-12-01T01:08:34.547Z,40.40
2022-12-01T01:11:02.365Z,40.53
2022-12-01T01:13:29.952Z,44.43
2022-12-01T01:15:59.656Z,39.33
2022-12-01T01:18:27.160Z,34.83
2022-12-01T01:20:58.596Z,37.30
2022-12-01T01:23:26.788Z,47.23
2022-12-01T01:26:01.286Z,31.97
2022-12-01T01:28:28.731Z,38.03
2022-12-01T01:30:56.313Z,39.73
2022-12-01T01:33:24.051Z,40.57
2022-12-01T01:35:51.682Z,47.53
2022-12-01T01:38:19.237Z,42.07
2022-12-01T01:40:47.688Z,42.97
2022-12-01T01:43:18.785Z,32.33
2022-12-01T01:45:46.339Z,44.00
2022-12-01T01:48:14.758Z,44.63
2022-12-01T01:50:42.688Z,45.33
2022-12-01T01:53:14.585Z,39.87
2022-12-01T01:55:42.171Z,45.73
2022-12-01T01:58:12.036Z,47.70
2022-12-01T02:00:43.668Z,43.33
2022-12-01T02:03:15.911Z,53.67
2022-12-01T02:05:44.792Z,41.47
2022-12-01T02:08:13.558Z,37.13
2022-12-01T02:11:00.637Z,39.03
2022-12-01T02:13:35.291Z,41.53
2022-12-01T02:16:13.527Z,38.87
2022-12-01T02:18:51.043Z,48.77
2022-12-01T02:21:49.821Z,45.80
2022-12-01T02:24:44.527Z,31.87
2022-12-01T02:27:26.627Z,34.77
2022-12-01T02:30:09.003Z,30.20
2022-12-01T02:32:48.124Z,36.40
2022-12-01T02:35:22.643Z,31.40
2022-12-01T02:38:01.835Z,36.20
2022-12-01T02:40:34.795Z,39.90
2022-12-01T02:43:06.511Z,33.23
2022-12-01T02:45:41.790Z,29.80
2022-12-01T02:48:15.220Z,45.47
2022-12-01T02:50:45.039Z,35.40
2022-12-01T02:53:16.363Z,40.43
2022-12-01T02:55:52.477Z,37.93
2022-12-01T02:58:21.811Z,34.30
2022-12-01T03:01:02.978Z,44.03
2022-12-01T03:03:45.813Z,26.50
2022-12-01T03:06:20.383Z,39.50
2022-12-01T03:08:58.260Z,37.90
2022-12-01T03:11:36.607Z,37.53
2022-12-01T03:14:15.561Z,33.50
2022-12-01T03:16:50.734Z,23.43
2022-12-01T03:19:28.123Z,33.70
2022-12-01T03:22:02.655Z,34.40
2022-12-01T03:24:32.980Z,40.43
2022-12-01T03:27:03.049Z,35.30
2022-12-01T03:29:34.203Z,34.17
2022-12-01T03:32:05.784Z,45.37
2022-12-01T03:34:41.263Z,47.60
2022-12-01T03:37:13.965Z,39.73
2022-12-01T03:39:44.048Z,40.97
2022-12-01T03:42:17.478Z,30.70
2022-12-01T03:44:49.775Z,42.23
2022-12-01T03:47:21.518Z,30.03
2022-12-01T03:49:53.233Z,53.10
2022-12-01T03:52:31.182Z,40.03
2022-12-01T03:55:11.906Z,44.13
2022-12-01T03:57:43.987Z,49.50
2022-12-01T04:00:13.164Z,39.77
2022-12-01T04:02:41.218Z,42.57
2022-12-01T04:05:10.171Z,31.53
2022-12-01T04:07:37.973Z,50.90
2022-12-01T04:10:07.116Z,48.30
2022-12-01T04:12:34.939Z,26.77
2022-12-01T04:15:04.386Z,28.17
2022-12-01T04:17:32.623Z,27.17
2022-12-01T04:20:00.096Z,35.43
2022-12-01T04:22:29.217Z,48.77
2022-12-01T04:24:56.858Z,42.57
2022-12-01T04:27:24.419Z,19.07
2022-12-01T04:29:52.065Z,42.07
2022-12-01T04:32:19.716Z,36.77
2022-12-01T04:34:47.192Z,49.53
2022-12-01T04:37:14.781Z,40.27
2022-12-01T04:39:43.827Z,46.37
2022-12-01T04:42:11.858Z,42.43
2022-12-01T04:44:39.302Z,45.27
2022-12-01T04:47:07.576Z,41.50
2022-12-01T04:49:37.188Z,46.87
2022-12-01T04:52:05.177Z,48.13
2022-12-01T04:54:32.749Z,43.70
2022-12-01T04:57:01.549Z,40.47
2022-12-01T04:59:29.048Z,29.10
2022-12-01T05:01:56.544Z,38.23
2022-12-01T05:04:24.005Z,42.50
2022-12-01T05:06:51.443Z,47.20
2022-12-01T05:09:20.981Z,48.87
2022-12-01T05:11:48.470Z,31.93
2022-12-01T05:14:17.222Z,36.67
2022-12-01T05:16:44.766Z,62.07
2022-12-01T05:19:29.914Z,49.00
2022-12-01T05:21:57.442Z,40.07
2022-12-01T05:24:24.953Z,29.37
2022-12-01T05:26:52.511Z,41.37
2022-12-01T05:29:21.307Z,38.50
2022-12-01T05:31:48.856Z,30.07
2022-12-01T05:34:16.393Z,46.90
2022-12-01T05:36:43.798Z,47.80
2022-12-01T05:39:11.292Z,34.43
2022-12-01T05:41:38.720Z,42.50
2022-12-01T05:44:06.420Z,43.13
2022-12-01T05:46:35.195Z,40.27
2022-12-01T05:49:02.657Z,29.40
2022-12-01T05:51:30.069Z,41.83
2022-12-01T05:53:59.853Z,38.63
2022-12-01T05:56:27.516Z,52.33
2022-12-01T05:58:54.961Z,42.67
2022-12-01T06:01:22.996Z,44.33
2022-12-01T06:03:53.531Z,41.27
2022-12-01T06:06:21.397Z,52.43
2022-12-01T06:08:48.870Z,51.03
2022-12-01T06:11:17.590Z,54.00
2022-12-01T06:13:45.080Z,47.43
2022-12-01T06:16:12.655Z,27.17
2022-12-01T06:18:40.545Z,40.10
2022-12-01T06:21:09.301Z,27.23
2022-12-01T06:23:36.783Z,50.27
2022-12-01T06:26:04.675Z,36.37
2022-12-01T06:28:39.495Z,46.03
2022-12-01T06:31:07.635Z,34.83
2022-12-01T06:33:35.541Z,45.03
2022-12-01T06:36:14.799Z,39.87
2022-12-01T06:39:39.578Z,38.30
2022-12-01T06:42:44.728Z,44.53
2022-12-01T06:45:40.912Z,38.47
2022-12-01T06:48:20.430Z,43.97
2022-12-01T06:51:00.346Z,41.53
2022-12-01T06:53:39.050Z,36.20
2022-12-01T06:56:20.659Z,42.20
2022-12-01T06:59:11.873Z,51.73
2022-12-01T07:01:48.799Z,50.47
2022-12-01T07:04:17.083Z,51.73
2022-12-01T07:06:45.803Z,45.60
2022-12-01T07:09:20.088Z,41.77
2022-12-01T07:11:55.186Z,46.53
2022-12-01T07:14:27.229Z,60.23
2022-12-01T07:17:06.748Z,51.33
2022-12-01T07:19:35.931Z,37.23
2022-12-01T07:22:08.616Z,66.23
2022-12-01T07:24:39.911Z,60.40
2022-12-01T07:27:14.911Z,50.43
2022-12-01T07:29:48.654Z,44.00
2022-12-01T07:32:17.209Z,42.50
2022-12-01T07:34:46.892Z,65.23
2022-12-01T07:37:15.179Z,70.83
2022-12-01T07:39:43.459Z,69.47
2022-12-01T07:42:17.628Z,66.43
2022-12-01T07:44:46.031Z,47.53
2022-12-01T07:47:17.422Z,66.37
2022-12-01T07:49:46.539Z,65.50
2022-12-01T07:52:15.191Z,58.93
2022-12-01T07:54:46.561Z,56.73
2022-12-01T07:57:26.182Z,55.87
2022-12-01T07:59:54.977Z,65.83
2022-12-01T08:02:26.710Z,67.07
2022-12-01T08:04:59.629Z,56.43
2022-12-01T08:07:30.093Z,72.23
2022-12-01T08:10:11.679Z,71.00
2022-12-01T08:12:45.924Z,78.00
2022-12-01T08:15:14.318Z,71.97
2022-12-01T08:17:42.603Z,59.37
2022-12-01T08:20:13.041Z,63.80
2022-12-01T08:22:41.174Z,63.23
2022-12-01T08:25:10.081Z,66.03
2022-12-01T08:27:38.959Z,66.30
2022-12-01T08:30:13.382Z,81.97
2022-12-01T08:32:45.436Z,53.80
2022-12-01T08:35:14.257Z,63.50
2022-12-01T08:37:43.482Z,60.00
2022-12-01T08:40:13.833Z,50.87
2022-12-01T08:42:42.585Z,63.27
2022-12-01T08:45:14.334Z,53.67
2022-12-01T08:47:44.155Z,64.77
2022-12-01T08:50:14.236Z,62.53
2022-12-01T08:52:54.166Z,52.50
2022-12-01T08:55:24.271Z,29.93
2022-12-01T08:57:57.226Z,46.30
2022-12-01T09:00:48.009Z,67.50
2022-12-01T09:03:23.472Z,58.43
2022-12-01T09:05:52.838Z,59.63
2022-12-01T09:08:39.820Z,74.67
2022-12-01T09:11:23.963Z,60.60
2022-12-01T09:13:58.447Z,71.60
2022-12-01T09:24:14.906Z,56.20
2022-12-01T09:27:14.361Z,62.17
2022-12-01T09:32:48.020Z,66.47
2022-12-01T09:35:23.373Z,67.60
2022-12-01T09:48:21.240Z,66.20
2022-12-01T09:51:23.366Z,70.80
2022-12-01T09:53:55.228Z,69.17
2022-12-01T09:56:30.031Z,57.80
2022-12-01T09:59:02.489Z,57.93
2022-12-01T10:01:36.733Z,67.73
2022-12-01T10:04:11.983Z,62.80
2022-12-01T10:06:46.981Z,71.50
2022-12-01T10:09:43.473Z,64.57
2022-12-01T10:13:21.648Z,62.40
2022-12-01T10:35:30.850Z,61.53
2022-12-01T10:41:58.837Z,58.07
2022-12-01T10:45:02.501Z,52.93
2022-12-01T10:51:49.922Z,46.53
2022-12-01T10:58:48.872Z,39.47
2022-12-01T11:02:07.183Z,40.73
2022-12-01T11:08:26.399Z,31.80
2022-12-01T11:22:30.401Z,36.93
2022-12-01T11:25:08.486Z,36.93
2022-12-01T11:33:29.279Z,38.00
2022-12-01T11:36:00.269Z,37.47
2022-12-01T11:41:40.586Z,30.27
2022-12-01T11:48:04.327Z,32.57
2022-12-01T11:50:40.219Z,45.53
2022-12-01T12:03:42.097Z,46.60
2022-12-01T12:10:39.474Z,35.77
2022-12-01T12:22:13.941Z,38.03
2022-12-01T12:25:36.266Z,21.60
2022-12-01T12:28:55.887Z,34.27
2022-12-01T12:32:05.226Z,40.03
2022-12-01T12:34:51.195Z,40.53
2022-12-01T12:37:41.410Z,33.50
2022-12-01T12:40:41.550Z,36.30
2022-12-01T12:47:06.371Z,31.27
2022-12-01T12:49:53.371Z,37.43
2022-12-01T13:05:28.057Z,36.03
2022-12-01T13:08:18.994Z,37.17
2022-12-01T13:12:13.067Z,34.30
2022-12-01T13:15:16.185Z,36.20
2022-12-01T14:00:30.875Z,31.13
2022-12-01T14:03:49.969Z,34.53
2022-12-01T14:06:38.300Z,29.00
2022-12-01T14:10:01.501Z,34.93
2022-12-01T14:12:54.438Z,36.03
2022-12-01T14:15:32.144Z,35.63
2022-12-01T14:25:14.225Z,36.93
2022-12-01T14:35:26.023Z,32.63
2022-12-01T14:41:40.454Z,37.47
2022-12-01T14:54:16.556Z,30.67
2022-12-01T14:57:04.335Z,27.43
2022-12-01T15:13:37.536Z,31.53
2022-12-01T15:16:34.474Z,34.23
2022-12-01T15:19:04.244Z,28.33
2022-12-01T15:24:50.755Z,32.30
2022-12-01T15:28:02.917Z,31.70
2022-12-01T15:30:37.908Z,31.33
2022-12-01T15:34:46.528Z,30.20
2022-12-01T15:36:42.812Z,24.13
2022-12-01T15:40:54.195Z,29.03
2022-12-01T15:43:34.830Z,31.10
2022-12-01T15:46:35.374Z,36.67
2022-12-01T15:49:27.451Z,32.93
2022-12-01T15:52:29.112Z,34.07
2022-12-01T15:54:59.666Z,35.03
2022-12-01T15:57:28.270Z,32.63
2022-12-01T15:59:59.067Z,32.73
2022-12-01T16:02:29.753Z,30.47
2022-12-01T16:05:15.825Z,29.93
2022-12-01T16:08:12.643Z,31.97
2022-12-01T16:10:34.502Z,30.13
2022-12-01T16:13:36.856Z,32.00
2022-12-01T16:16:36.409Z,33.13
2022-12-01T16:19:22.193Z,28.80
2022-12-01T16:21:52.569Z,32.23
2022-12-01T16:24:24.671Z,27.17
2022-12-01T16:26:55.406Z,34.97
2022-12-01T16:29:25.862Z,35.27
2022-12-01T16:34:49.329Z,31.07
2022-12-01T16:37:17.591Z,39.87
2022-12-01T16:39:45.257Z,28.93
2022-12-01T16:42:15.160Z,37.50
2022-12-01T16:44:43.456Z,34.97
2022-12-01T16:47:16.260Z,31.93
2022-12-01T16:49:43.810Z,32.63
2022-12-01T16:55:02.836Z,36.70
2022-12-01T16:57:32.150Z,37.37
2022-12-01T16:59:59.766Z,42.57
2022-12-01T17:02:33.482Z,33.60
2022-12-01T17:05:04.850Z,32.70
2022-12-01T17:07:32.346Z,34.20
2022-12-01T17:10:00.362Z,32.90
2022-12-01T17:12:28.141Z,34.20
2022-12-01T17:18:32.248Z,29.33
2022-12-01T17:21:07.058Z,36.20
2022-12-01T17:24:06.031Z,37.77
2022-12-01T17:30:50.890Z,27.57
2022-12-01T17:33:45.930Z,28.60
2022-12-01T17:36:16.883Z,36.20
2022-12-01T17:38:46.493Z,34.80
2022-12-01T17:41:20.778Z,33.30
2022-12-01T17:43:48.898Z,30.93
2022-12-01T17:46:16.576Z,37.77
2022-12-01T17:48:48.447Z,33.40
2022-12-01T17:51:16.968Z,32.50
2022-12-01T17:53:45.547Z,27.37
2022-12-01T17:56:15.517Z,29.60
2022-12-01T17:58:43.818Z,35.33
2022-12-01T18:01:15.752Z,37.23
2022-12-01T18:03:45.160Z,29.57
2022-12-01T18:06:14.958Z,32.07
2022-12-01T18:08:43.682Z,26.70
2022-12-01T18:11:15.251Z,35.20
2022-12-01T18:13:45.367Z,33.37
2022-12-01T18:16:15.301Z,35.23
2022-12-01T18:18:43.116Z,36.80
2022-12-01T18:21:14.029Z,35.20
2022-12-01T18:23:41.799Z,42.17
2022-12-01T18:26:16.103Z,34.03
2022-12-01T18:28:44.079Z,40.97
2022-12-01T18:31:14.287Z,37.70
2022-12-01T18:33:44.191Z,35.50
2022-12-01T18:36:15.829Z,27.90
2022-12-01T18:38:47.071Z,31.03
2022-12-01T18:41:15.665Z,31.27
2022-12-01T18:43:43.497Z,36.27
2022-12-01T18:46:11.966Z,31.43
2022-12-01T18:48:44.286Z,35.40
2022-12-01T18:51:14.982Z,33.63
2022-12-01T18:53:42.846Z,29.93
2022-12-01T18:56:12.303Z,33.90
2022-12-01T18:58:41.139Z,37.63
2022-12-01T19:01:19.954Z,32.70
2022-12-01T19:03:47.809Z,36.10
2022-12-01T19:06:16.963Z,34.23
2022-12-01T19:08:46.497Z,30.97
2022-12-01T19:11:14.897Z,35.20
2022-12-01T19:13:42.638Z,39.63
2022-12-01T19:16:12.428Z,34.47
2022-12-01T19:18:40.414Z,37.37
2022-12-01T19:21:11.138Z,32.97
2022-12-01T19:23:40.431Z,43.53
2022-12-01T19:26:11.115Z,36.63
2022-12-01T19:28:40.343Z,36.77
2022-12-01T19:31:12.280Z,31.03
2022-12-01T19:33:40.202Z,34.37
2022-12-01T19:36:10.798Z,32.00
2022-12-01T19:38:39.988Z,34.90
2022-12-01T19:41:09.149Z,26.03
2022-12-01T19:43:37.881Z,35.03
2022-12-01T19:46:06.895Z,27.87
2022-12-01T19:48:34.853Z,31.00
2022-12-01T19:51:03.287Z,35.40
2022-12-01T19:53:33.806Z,34.20
2022-12-01T19:56:05.780Z,33.50
2022-12-01T19:58:34.893Z,33.67
2022-12-01T20:01:07.379Z,33.83
2022-12-01T20:03:36.179Z,31.57
2022-12-01T20:06:05.488Z,30.20
2022-12-01T20:08:35.885Z,38.23
2022-12-01T20:11:08.452Z,43.37
2022-12-01T20:13:39.590Z,29.53
2022-12-01T20:16:10.211Z,34.53
2022-12-01T20:18:38.515Z,28.97
2022-12-01T20:21:08.810Z,31.90
2022-12-01T20:23:37.318Z,35.07
2022-12-01T20:26:09.683Z,33.30
2022-12-01T20:28:38.978Z,34.47
2022-12-01T20:31:11.164Z,33.20
2022-12-01T20:33:40.408Z,34.10
2022-12-01T20:36:09.832Z,28.20
2022-12-01T20:38:39.097Z,39.87
2022-12-01T20:41:08.779Z,37.23
2022-12-01T20:43:36.792Z,30.60
2022-12-01T20:46:05.276Z,27.37
2022-12-01T20:48:38.128Z,28.63
2022-12-01T20:51:07.945Z,37.53
2022-12-01T20:53:36.425Z,32.97
2022-12-01T20:56:05.181Z,25.20
2022-12-01T20:58:37.761Z,34.57
2022-12-01T21:01:09.293Z,32.47
2022-12-01T21:03:41.486Z,34.23
2022-12-01T21:06:10.138Z,29.10
2022-12-01T21:08:38.803Z,32.73
2022-12-01T21:11:07.768Z,36.70
2022-12-01T21:13:39.654Z,29.00
2022-12-01T21:16:14.424Z,29.40
2022-12-01T21:18:50.395Z,30.90
2022-12-01T21:21:25.470Z,32.47
2022-12-01T21:24:11.058Z,37.93
2022-12-01T21:26:40.856Z,31.70
2022-12-01T21:29:18.950Z,29.70
2022-12-01T21:31:47.720Z,33.80
2022-12-01T21:34:19.874Z,34.63
2022-12-01T21:36:49.343Z,30.93
2022-12-01T21:39:20.689Z,37.17
2022-12-01T21:41:49.943Z,35.43
2022-12-01T21:44:20.594Z,30.37
2022-12-01T21:46:51.163Z,31.53
2022-12-01T21:49:21.642Z,29.87
2022-12-01T21:51:52.681Z,34.40
2022-12-01T21:54:22.158Z,29.57
2022-12-01T21:56:50.871Z,35.57
2022-12-01T21:59:23.880Z,34.67
2022-12-01T22:01:54.694Z,29.80
2022-12-01T22:04:24.634Z,30.27
2022-12-01T22:06:53.676Z,30.70
2022-12-01T22:09:25.948Z,29.00
2022-12-01T22:11:56.046Z,32.60
2022-12-01T22:14:30.252Z,30.30
2022-12-01T22:17:02.075Z,27.77
2022-12-01T22:19:31.850Z,28.37
2022-12-01T22:22:15.626Z,27.67
2022-12-01T22:24:45.615Z,26.17
2022-12-01T22:27:28.694Z,27.03
2022-12-01T22:30:02.900Z,28.33
2022-12-01T22:32:38.055Z,33.27
2022-12-01T22:35:23.745Z,28.07
2022-12-01T22:37:52.636Z,34.57
2022-12-01T22:40:39.702Z,27.33
2022-12-01T22:43:33.844Z,29.63
2022-12-01T22:46:23.348Z,29.80
2022-12-01T22:48:53.036Z,27.00
2022-12-01T22:51:39.197Z,30.80
2022-12-01T22:54:31.708Z,30.40
2022-12-01T22:57:34.941Z,25.77
2022-12-01T23:00:14.954Z,32.50
2022-12-01T23:02:44.882Z,35.43
2022-12-01T23:05:22.785Z,26.73
2022-12-01T23:07:51.286Z,32.57
2022-12-01T23:10:21.352Z,31.33
2022-12-01T23:12:50.595Z,32.87
2022-12-01T23:15:27.273Z,33.03
2022-12-01T23:17:56.171Z,30.00
2022-12-01T23:20:32.484Z,29.00
2022-12-01T23:23:02.199Z,25.20
2022-12-01T23:25:30.777Z,30.63
2022-12-01T23:28:01.405Z,26.27
2022-12-01T23:30:29.138Z,32.93
2022-12-01T23:33:20.559Z,28.57
2022-12-01T23:35:52.312Z,25.63
2022-12-01T23:38:24.046Z,31.53
2022-12-01T23:40:53.832Z,26.10
2022-12-01T23:43:23.762Z,31.10
2022-12-01T23:46:04.044Z,32.87
2022-12-01T23:48:38.287Z,27.60
2022-12-01T23:51:14.981Z,25.23
2022-12-01T23:53:42.588Z,34.73
2022-12-01T23:56:15.155Z,26.70
2022-12-01T23:58:44.046Z,31.00
